sensor_id;sensor_type;location;lat;lon;timestamp;pressure;altitude;pressure_sealevel;temperature;humidity
17505;BME280;8870;50.950;11.762;2022-09-03T00:02:56;98329.19;;;13.49;100.00
17505;BME280;8870;50.950;11.762;2022-09-03T00:08:05;98318.22;;;13.43;100.00
17505;BME280;8870;50.950;11.762;2022-09-03T00:13:15;98316.25;;;13.36;100.00
17505;BME280;8870;50.950;11.762;2022-09-03T00:18:26;98317.50;;;13.25;100.00
17505;BME280;8870;50.950;11.762;2022-09-03T00:23:34;98317.94;;;13.14;100.00
17505;BME280;8870;50.950;11.762;2022-09-03T00:28:44;98311.56;;;13.07;100.00
17505;BME280;8870;50.950;11.762;2022-09-03T00:33:55;98313.13;;;13.01;100.00
17505;BME280;8870;50.950;11.762;2022-09-03T00:39:01;98314.50;;;12.97;100.00
17505;BME280;8870;50.950;11.762;2022-09-03T00:44:18;98320.44;;;12.92;100.00
17505;BME280;8870;50.950;11.762;2022-09-03T00:49:39;98326.59;;;12.86;100.00
17505;BME280;8870;50.950;11.762;2022-09-03T00:54:54;98323.56;;;12.81;100.00
17505;BME280;8870;50.950;11.762;2022-09-03T01:00:06;98322.88;;;12.79;100.00
17505;BME280;8870;50.950;11.762;2022-09-03T01:05:22;98319.91;;;12.74;100.00
17505;BME280;8870;50.950;11.762;2022-09-03T01:10:35;98320.06;;;12.72;100.00
17505;BME280;8870;50.950;11.762;2022-09-03T01:15:51;98327.69;;;12.69;100.00
17505;BME280;8870;50.950;11.762;2022-09-03T01:21:19;98336.13;;;12.66;100.00
17505;BME280;8870;50.950;11.762;2022-09-03T01:26:33;98327.72;;;12.60;100.00
17505;BME280;8870;50.950;11.762;2022-09-03T01:31:54;98335.16;;;12.58;100.00
17505;BME280;8870;50.950;11.762;2022-09-03T01:37:07;98327.94;;;12.51;100.00
17505;BME280;8870;50.950;11.762;2022-09-03T01:42:23;98323.72;;;12.48;100.00
17505;BME280;8870;50.950;11.762;2022-09-03T01:47:42;98329.47;;;12.45;100.00
17505;BME280;8870;50.950;11.762;2022-09-03T01:52:57;98329.00;;;12.41;100.00
17505;BME280;8870;50.950;11.762;2022-09-03T01:58:10;98335.41;;;12.40;100.00
17505;BME280;8870;50.950;11.762;2022-09-03T02:03:19;98331.88;;;12.40;100.00
17505;BME280;8870;50.950;11.762;2022-09-03T02:08:24;98337.44;;;12.38;100.00
17505;BME280;8870;50.950;11.762;2022-09-03T02:13:33;98330.84;;;12.41;100.00
17505;BME280;8870;50.950;11.762;2022-09-03T02:18:45;98333.19;;;12.44;100.00
17505;BME280;8870;50.950;11.762;2022-09-03T02:23:52;98344.00;;;12.44;100.00
17505;BME280;8870;50.950;11.762;2022-09-03T02:28:57;98336.75;;;12.44;100.00
17505;BME280;8870;50.950;11.762;2022-09-03T02:34:04;98334.88;;;12.45;100.00
17505;BME280;8870;50.950;11.762;2022-09-03T02:39:09;98326.97;;;12.43;100.00
17505;BME280;8870;50.950;11.762;2022-09-03T02:44:17;98339.63;;;12.43;100.00
17505;BME280;8870;50.950;11.762;2022-09-03T02:49:31;98333.53;;;12.41;100.00
17505;BME280;8870;50.950;11.762;2022-09-03T02:54:36;98331.88;;;12.40;100.00
17505;BME280;8870;50.950;11.762;2022-09-03T03:00:08;98329.34;;;12.38;100.00
17505;BME280;8870;50.950;11.762;2022-09-03T03:05:20;98321.56;;;12.35;100.00
17505;BME280;8870;50.950;11.762;2022-09-03T03:10:28;98322.78;;;12.32;100.00
17505;BME280;8870;50.950;11.762;2022-09-03T03:15:33;98320.41;;;12.29;100.00
17505;BME280;8870;50.950;11.762;2022-09-03T03:20:40;98318.91;;;12.27;100.00
17505;BME280;8870;50.950;11.762;2022-09-03T03:25:45;98322.81;;;12.24;100.00
17505;BME280;8870;50.950;11.762;2022-09-03T03:30:49;98319.78;;;12.19;100.00
17505;BME280;8870;50.950;11.762;2022-09-03T03:36:03;98316.09;;;12.12;100.00
17505;BME280;8870;50.950;11.762;2022-09-03T03:41:09;98315.97;;;12.05;100.00
17505;BME280;8870;50.950;11.762;2022-09-03T03:46:14;98324.22;;;11.95;100.00
17505;BME280;8870;50.950;11.762;2022-09-03T03:51:21;98320.34;;;11.90;100.00
17505;BME280;8870;50.950;11.762;2022-09-03T03:56:26;98322.72;;;11.84;100.00
17505;BME280;8870;50.950;11.762;2022-09-03T04:01:31;98320.72;;;11.78;100.00
17505;BME280;8870;50.950;11.762;2022-09-03T04:06:38;98315.16;;;11.71;100.00
17505;BME280;8870;50.950;11.762;2022-09-03T04:11:43;98320.38;;;11.65;100.00
17505;BME280;8870;50.950;11.762;2022-09-03T04:16:48;98321.09;;;11.59;100.00
17505;BME280;8870;50.950;11.762;2022-09-03T04:21:55;98330.69;;;11.53;100.00
17505;BME280;8870;50.950;11.762;2022-09-03T04:27:00;98327.50;;;11.41;100.00
17505;BME280;8870;50.950;11.762;2022-09-03T04:32:05;98329.19;;;11.34;100.00
17505;BME280;8870;50.950;11.762;2022-09-03T04:37:24;98320.09;;;11.27;100.00
17505;BME280;8870;50.950;11.762;2022-09-03T04:42:29;98326.31;;;11.19;100.00
17505;BME280;8870;50.950;11.762;2022-09-03T04:47:35;98321.75;;;11.11;100.00
17505;BME280;8870;50.950;11.762;2022-09-03T04:52:43;98325.66;;;11.08;100.00
17505;BME280;8870;50.950;11.762;2022-09-03T04:57:47;98322.44;;;11.05;100.00
17505;BME280;8870;50.950;11.762;2022-09-03T05:02:52;98332.38;;;11.04;100.00
17505;BME280;8870;50.950;11.762;2022-09-03T05:08:00;98338.63;;;11.05;100.00
17505;BME280;8870;50.950;11.762;2022-09-03T05:13:06;98334.06;;;11.05;100.00
17505;BME280;8870;50.950;11.762;2022-09-03T05:18:12;98349.41;;;11.05;100.00
17505;BME280;8870;50.950;11.762;2022-09-03T05:23:20;98342.81;;;11.07;100.00
17505;BME280;8870;50.950;11.762;2022-09-03T05:28:27;98339.94;;;11.09;100.00
17505;BME280;8870;50.950;11.762;2022-09-03T05:33:34;98335.06;;;11.13;100.00
17505;BME280;8870;50.950;11.762;2022-09-03T05:38:42;98334.41;;;11.19;100.00
17505;BME280;8870;50.950;11.762;2022-09-03T05:43:47;98330.03;;;11.26;100.00
17505;BME280;8870;50.950;11.762;2022-09-03T05:48:56;98346.88;;;11.36;100.00
17505;BME280;8870;50.950;11.762;2022-09-03T05:54:05;98349.25;;;11.48;100.00
17505;BME280;8870;50.950;11.762;2022-09-03T05:59:10;98346.88;;;11.61;100.00
17505;BME280;8870;50.950;11.762;2022-09-03T06:04:15;98350.91;;;11.74;100.00
17505;BME280;8870;50.950;11.762;2022-09-03T06:09:23;98350.91;;;11.90;100.00
17505;BME280;8870;50.950;11.762;2022-09-03T06:14:28;98341.28;;;12.04;100.00
17505;BME280;8870;50.950;11.762;2022-09-03T06:19:33;98345.78;;;12.20;100.00
17505;BME280;8870;50.950;11.762;2022-09-03T06:24:40;98342.69;;;12.40;100.00
17505;BME280;8870;50.950;11.762;2022-09-03T06:29:45;98351.03;;;12.61;100.00
17505;BME280;8870;50.950;11.762;2022-09-03T06:34:52;98351.78;;;12.78;100.00
17505;BME280;8870;50.950;11.762;2022-09-03T06:39:59;98350.50;;;12.98;100.00
17505;BME280;8870;50.950;11.762;2022-09-03T06:45:06;98351.25;;;13.15;100.00
17505;BME280;8870;50.950;11.762;2022-09-03T06:50:12;98356.72;;;13.30;100.00
17505;BME280;8870;50.950;11.762;2022-09-03T06:55:21;98345.59;;;13.48;100.00
17505;BME280;8870;50.950;11.762;2022-09-03T07:00:26;98349.22;;;13.63;100.00
17505;BME280;8870;50.950;11.762;2022-09-03T07:05:32;98342.78;;;13.79;100.00
17505;BME280;8870;50.950;11.762;2022-09-03T07:10:45;98329.38;;;14.01;100.00
17505;BME280;8870;50.950;11.762;2022-09-03T07:15:58;98335.09;;;14.21;100.00
17505;BME280;8870;50.950;11.762;2022-09-03T07:21:05;98340.75;;;14.41;100.00
17505;BME280;8870;50.950;11.762;2022-09-03T07:26:14;98342.69;;;14.62;100.00
17505;BME280;8870;50.950;11.762;2022-09-03T07:31:23;98336.97;;;14.87;100.00
17505;BME280;8870;50.950;11.762;2022-09-03T07:36:29;98327.38;;;15.06;100.00
17505;BME280;8870;50.950;11.762;2022-09-03T07:41:39;98325.13;;;15.32;100.00
17505;BME280;8870;50.950;11.762;2022-09-03T07:46:55;98323.69;;;15.57;100.00
17505;BME280;8870;50.950;11.762;2022-09-03T07:52:02;98310.50;;;15.83;100.00
17505;BME280;8870;50.950;11.762;2022-09-03T07:57:15;98315.72;;;16.06;100.00
17505;BME280;8870;50.950;11.762;2022-09-03T08:02:20;98330.50;;;16.32;100.00
17505;BME280;8870;50.950;11.762;2022-09-03T08:07:27;98326.63;;;16.55;100.00
17505;BME280;8870;50.950;11.762;2022-09-03T08:12:35;98329.25;;;16.83;100.00
17505;BME280;8870;50.950;11.762;2022-09-03T08:17:42;98336.25;;;17.06;100.00
17505;BME280;8870;50.950;11.762;2022-09-03T08:22:47;98334.22;;;17.21;100.00
17505;BME280;8870;50.950;11.762;2022-09-03T08:27:57;98327.09;;;17.40;100.00
17505;BME280;8870;50.950;11.762;2022-09-03T08:33:02;98321.03;;;17.59;100.00
17505;BME280;8870;50.950;11.762;2022-09-03T08:38:07;98321.03;;;17.72;100.00
17505;BME280;8870;50.950;11.762;2022-09-03T08:43:20;98315.78;;;17.91;100.00
17505;BME280;8870;50.950;11.762;2022-09-03T08:48:26;98298.19;;;18.07;100.00
17505;BME280;8870;50.950;11.762;2022-09-03T08:53:39;98306.09;;;18.22;100.00
17505;BME280;8870;50.950;11.762;2022-09-03T08:58:51;98304.81;;;18.38;100.00
17505;BME280;8870;50.950;11.762;2022-09-03T09:04:04;98303.44;;;18.60;96.39
17505;BME280;8870;50.950;11.762;2022-09-03T09:09:22;98309.09;;;18.72;100.00
17505;BME280;8870;50.950;11.762;2022-09-03T09:14:37;98298.94;;;18.86;90.28
17505;BME280;8870;50.950;11.762;2022-09-03T09:19:52;98294.88;;;19.02;95.02
17505;BME280;8870;50.950;11.762;2022-09-03T09:25:07;98298.78;;;19.20;79.71
17505;BME280;8870;50.950;11.762;2022-09-03T09:30:18;98287.91;;;19.38;75.07
17505;BME280;8870;50.950;11.762;2022-09-03T09:35:23;98282.28;;;19.59;68.45
17505;BME280;8870;50.950;11.762;2022-09-03T09:40:30;98287.84;;;19.70;71.03
17505;BME280;8870;50.950;11.762;2022-09-03T09:45:39;98282.91;;;19.86;71.95
17505;BME280;8870;50.950;11.762;2022-09-03T09:50:45;98276.88;;;20.02;65.80
17505;BME280;8870;50.950;11.762;2022-09-03T09:55:52;98274.56;;;20.18;61.05
17505;BME280;8870;50.950;11.762;2022-09-03T10:01:09;98275.72;;;20.29;59.02
17505;BME280;8870;50.950;11.762;2022-09-03T10:06:16;98273.06;;;20.41;57.79
17505;BME280;8870;50.950;11.762;2022-09-03T10:11:34;98275.72;;;20.47;58.40
17505;BME280;8870;50.950;11.762;2022-09-03T10:16:48;98273.28;;;20.58;57.73
17505;BME280;8870;50.950;11.762;2022-09-03T10:22:00;98276.31;;;20.68;56.32
17505;BME280;8870;50.950;11.762;2022-09-03T10:27:08;98273.03;;;20.78;56.47
17505;BME280;8870;50.950;11.762;2022-09-03T10:32:25;98260.72;;;20.87;53.58
17505;BME280;8870;50.950;11.762;2022-09-03T10:37:47;98262.50;;;20.93;55.01
17505;BME280;8870;50.950;11.762;2022-09-03T10:43:11;98255.97;;;20.94;54.65
17505;BME280;8870;50.950;11.762;2022-09-03T10:48:39;98258.38;;;21.03;53.02
17505;BME280;8870;50.950;11.762;2022-09-03T10:54:10;98252.22;;;21.19;52.75
17505;BME280;8870;50.950;11.762;2022-09-03T10:59:31;98245.94;;;21.31;51.29
17505;BME280;8870;50.950;11.762;2022-09-03T11:04:47;98246.31;;;21.34;51.85
17505;BME280;8870;50.950;11.762;2022-09-03T11:09:58;98241.31;;;21.43;51.17
17505;BME280;8870;50.950;11.762;2022-09-03T11:15:10;98247.16;;;21.59;49.87
17505;BME280;8870;50.950;11.762;2022-09-03T11:20:24;98242.19;;;21.67;50.52
17505;BME280;8870;50.950;11.762;2022-09-03T11:25:31;98231.09;;;21.74;50.59
17505;BME280;8870;50.950;11.762;2022-09-03T11:30:48;98231.47;;;21.90;50.42
17505;BME280;8870;50.950;11.762;2022-09-03T11:36:00;98225.59;;;21.98;49.88
17505;BME280;8870;50.950;11.762;2022-09-03T11:41:11;98225.94;;;22.13;50.11
17505;BME280;8870;50.950;11.762;2022-09-03T11:46:28;98206.94;;;22.24;50.12
17505;BME280;8870;50.950;11.762;2022-09-03T11:51:37;98206.78;;;22.42;50.44
17505;BME280;8870;50.950;11.762;2022-09-03T11:56:45;98200.41;;;22.54;50.17
17505;BME280;8870;50.950;11.762;2022-09-03T12:01:57;98209.91;;;22.46;48.71
17505;BME280;8870;50.950;11.762;2022-09-03T12:07:24;98197.78;;;22.59;49.53
17505;BME280;8870;50.950;11.762;2022-09-03T12:12:44;98194.25;;;22.75;49.05
17505;BME280;8870;50.950;11.762;2022-09-03T12:17:56;98193.78;;;22.96;49.44
17505;BME280;8870;50.950;11.762;2022-09-03T12:23:25;98193.78;;;23.13;47.22
17505;BME280;8870;50.950;11.762;2022-09-03T12:28:34;98193.59;;;23.31;48.58
17505;BME280;8870;50.950;11.762;2022-09-03T12:33:45;98193.13;;;23.57;48.14
17505;BME280;8870;50.950;11.762;2022-09-03T12:38:53;98190.88;;;23.70;47.26
17505;BME280;8870;50.950;11.762;2022-09-03T12:44:14;98178.38;;;23.80;47.46
17505;BME280;8870;50.950;11.762;2022-09-03T12:49:19;98194.47;;;24.10;46.73
17505;BME280;8870;50.950;11.762;2022-09-03T12:54:37;98190.03;;;24.31;44.54
17505;BME280;8870;50.950;11.762;2022-09-03T12:59:54;98178.81;;;24.60;46.18
17505;BME280;8870;50.950;11.762;2022-09-03T13:05:01;98169.13;;;24.80;44.34
17505;BME280;8870;50.950;11.762;2022-09-03T13:10:19;98161.94;;;24.79;41.94
17505;BME280;8870;50.950;11.762;2022-09-03T13:15:28;98159.03;;;24.91;43.60
17505;BME280;8870;50.950;11.762;2022-09-03T13:20:39;98152.59;;;25.13;44.38
17505;BME280;8870;50.950;11.762;2022-09-03T13:25:56;98158.69;;;25.15;43.14
17505;BME280;8870;50.950;11.762;2022-09-03T13:31:20;98157.63;;;25.21;43.16
17505;BME280;8870;50.950;11.762;2022-09-03T13:36:29;98165.16;;;25.36;42.07
17505;BME280;8870;50.950;11.762;2022-09-03T13:41:40;98161.13;;;25.44;40.72
17505;BME280;8870;50.950;11.762;2022-09-03T13:46:51;98153.53;;;25.66;40.92
17505;BME280;8870;50.950;11.762;2022-09-03T13:51:59;98156.09;;;25.78;41.64
17505;BME280;8870;50.950;11.762;2022-09-03T13:57:22;98140.78;;;26.03;39.38
17505;BME280;8870;50.950;11.762;2022-09-03T14:02:35;98141.41;;;26.15;39.14
17505;BME280;8870;50.950;11.762;2022-09-03T14:08:00;98132.84;;;26.17;40.62
17505;BME280;8870;50.950;11.762;2022-09-03T14:13:17;98132.59;;;26.29;40.36
17505;BME280;8870;50.950;11.762;2022-09-03T14:18:38;98126.88;;;26.56;40.81
17505;BME280;8870;50.950;11.762;2022-09-03T14:23:49;98127.75;;;27.14;39.61
17505;BME280;8870;50.950;11.762;2022-09-03T14:29:01;98135.50;;;27.01;39.29
17505;BME280;8870;50.950;11.762;2022-09-03T14:34:11;98144.00;;;26.53;38.71
17505;BME280;8870;50.950;11.762;2022-09-03T14:39:30;98137.06;;;26.45;38.95
17505;BME280;8870;50.950;11.762;2022-09-03T14:44:59;98133.25;;;26.77;39.02
17505;BME280;8870;50.950;11.762;2022-09-03T14:50:34;98133.00;;;27.05;39.35
17505;BME280;8870;50.950;11.762;2022-09-03T14:55:57;98131.63;;;27.07;38.37
17505;BME280;8870;50.950;11.762;2022-09-03T15:01:10;98129.69;;;27.23;38.51
17505;BME280;8870;50.950;11.762;2022-09-03T15:06:24;98137.72;;;27.10;39.33
17505;BME280;8870;50.950;11.762;2022-09-03T15:11:46;98143.50;;;26.82;39.01
17505;BME280;8870;50.950;11.762;2022-09-03T15:16:59;98146.19;;;26.46;40.04
17505;BME280;8870;50.950;11.762;2022-09-03T15:22:14;98136.66;;;26.11;41.14
17505;BME280;8870;50.950;11.762;2022-09-03T15:27:47;98142.25;;;25.68;40.28
17505;BME280;8870;50.950;11.762;2022-09-03T15:33:09;98139.59;;;25.41;41.38
17505;BME280;8870;50.950;11.762;2022-09-03T15:38:19;98141.81;;;25.11;42.93
17505;BME280;8870;50.950;11.762;2022-09-03T15:43:29;98142.16;;;24.87;43.06
17505;BME280;8870;50.950;11.762;2022-09-03T15:48:45;98146.97;;;24.70;43.44
17505;BME280;8870;50.950;11.762;2022-09-03T15:53:56;98139.78;;;24.41;43.87
17505;BME280;8870;50.950;11.762;2022-09-03T15:59:11;98139.88;;;24.24;43.67
17505;BME280;8870;50.950;11.762;2022-09-03T16:04:34;98136.00;;;23.98;44.82
17505;BME280;8870;50.950;11.762;2022-09-03T16:09:50;98135.13;;;23.75;44.73
17505;BME280;8870;50.950;11.762;2022-09-03T16:15:20;98140.31;;;23.54;45.54
17505;BME280;8870;50.950;11.762;2022-09-03T16:20:33;98150.25;;;23.38;49.20
17505;BME280;8870;50.950;11.762;2022-09-03T16:25:46;98160.44;;;23.21;55.67
17505;BME280;8870;50.950;11.762;2022-09-03T16:31:03;98168.22;;;22.78;65.71
17505;BME280;8870;50.950;11.762;2022-09-03T16:36:27;98162.38;;;22.16;93.58
17505;BME280;8870;50.950;11.762;2022-09-03T16:41:43;98160.06;;;21.73;82.69
17505;BME280;8870;50.950;11.762;2022-09-03T16:46:57;98156.84;;;21.52;69.25
17505;BME280;8870;50.950;11.762;2022-09-03T16:52:14;98155.88;;;21.22;65.87
17505;BME280;8870;50.950;11.762;2022-09-03T16:57:50;98147.41;;;21.12;63.72
17505;BME280;8870;50.950;11.762;2022-09-03T17:03:18;98144.19;;;21.03;62.50
17505;BME280;8870;50.950;11.762;2022-09-03T17:08:35;98152.88;;;21.00;63.52
17505;BME280;8870;50.950;11.762;2022-09-03T17:14:07;98154.66;;;20.94;64.20
17505;BME280;8870;50.950;11.762;2022-09-03T17:19:23;98150.59;;;20.85;63.75
17505;BME280;8870;50.950;11.762;2022-09-03T17:24:39;98153.78;;;20.82;65.11
17505;BME280;8870;50.950;11.762;2022-09-03T17:35:29;98156.00;;;20.73;66.65
17505;BME280;8870;50.950;11.762;2022-09-03T17:40:47;98157.16;;;20.66;68.70
17505;BME280;8870;50.950;11.762;2022-09-03T17:46:06;98169.28;;;20.58;73.05
17505;BME280;8870;50.950;11.762;2022-09-03T17:51:23;98163.91;;;20.51;74.59
17505;BME280;8870;50.950;11.762;2022-09-03T17:56:43;98171.16;;;20.45;76.60
17505;BME280;8870;50.950;11.762;2022-09-03T18:01:58;98166.69;;;20.32;76.98
17505;BME280;8870;50.950;11.762;2022-09-03T18:07:12;98174.59;;;20.22;86.32
17505;BME280;8870;50.950;11.762;2022-09-03T18:12:28;98179.53;;;20.13;85.62
17505;BME280;8870;50.950;11.762;2022-09-03T18:17:42;98191.03;;;20.04;88.91
17505;BME280;8870;50.950;11.762;2022-09-03T18:22:52;98191.19;;;19.90;90.93
17505;BME280;8870;50.950;11.762;2022-09-03T18:28:16;98206.78;;;19.83;87.87
17505;BME280;8870;50.950;11.762;2022-09-03T18:33:36;98213.31;;;19.82;91.73
17505;BME280;8870;50.950;11.762;2022-09-03T18:39:08;98210.66;;;19.75;100.00
17505;BME280;8870;50.950;11.762;2022-09-03T18:44:37;98219.94;;;19.74;95.50
17505;BME280;8870;50.950;11.762;2022-09-03T18:50:23;98237.22;;;19.68;98.41
17505;BME280;8870;50.950;11.762;2022-09-03T18:55:52;98244.28;;;19.57;100.00
17505;BME280;8870;50.950;11.762;2022-09-03T19:01:23;98244.00;;;19.40;100.00
17505;BME280;8870;50.950;11.762;2022-09-03T19:06:51;98241.50;;;19.06;100.00
17505;BME280;8870;50.950;11.762;2022-09-03T19:12:19;98249.53;;;19.01;100.00
17505;BME280;8870;50.950;11.762;2022-09-03T19:17:58;98240.31;;;18.96;100.00
17505;BME280;8870;50.950;11.762;2022-09-03T19:23:22;98249.34;;;18.96;100.00
17505;BME280;8870;50.950;11.762;2022-09-03T19:28:43;98253.97;;;18.89;100.00
17505;BME280;8870;50.950;11.762;2022-09-03T19:34:20;98256.59;;;18.70;100.00
17505;BME280;8870;50.950;11.762;2022-09-03T19:39:58;98252.44;;;18.68;100.00
17505;BME280;8870;50.950;11.762;2022-09-03T19:45:24;98261.63;;;18.73;100.00
17505;BME280;8870;50.950;11.762;2022-09-03T19:50:57;98250.72;;;18.73;100.00
17505;BME280;8870;50.950;11.762;2022-09-03T19:56:21;98257.84;;;18.74;100.00
17505;BME280;8870;50.950;11.762;2022-09-03T20:01:41;98255.94;;;18.75;100.00
17505;BME280;8870;50.950;11.762;2022-09-03T20:07:05;98254.06;;;18.75;100.00
17505;BME280;8870;50.950;11.762;2022-09-03T20:12:31;98253.88;;;18.70;100.00
17505;BME280;8870;50.950;11.762;2022-09-03T20:17:44;98259.75;;;18.67;100.00
17505;BME280;8870;50.950;11.762;2022-09-03T20:23:02;98261.28;;;18.63;100.00
17505;BME280;8870;50.950;11.762;2022-09-03T20:28:20;98268.00;;;18.54;100.00
17505;BME280;8870;50.950;11.762;2022-09-03T20:33:50;98265.13;;;18.48;100.00
17505;BME280;8870;50.950;11.762;2022-09-03T20:39:07;98260.72;;;18.47;100.00
17505;BME280;8870;50.950;11.762;2022-09-03T20:44:32;98257.78;;;18.42;100.00
17505;BME280;8870;50.950;11.762;2022-09-03T20:49:51;98268.53;;;18.37;100.00
17505;BME280;8870;50.950;11.762;2022-09-03T20:55:04;98271.03;;;18.32;100.00
17505;BME280;8870;50.950;11.762;2022-09-03T21:00:17;98268.13;;;18.27;100.00
17505;BME280;8870;50.950;11.762;2022-09-03T21:05:31;98261.66;;;18.21;100.00
17505;BME280;8870;50.950;11.762;2022-09-03T21:10:46;98258.06;;;18.21;100.00
17505;BME280;8870;50.950;11.762;2022-09-03T21:15:57;98250.75;;;18.21;100.00
17505;BME280;8870;50.950;11.762;2022-09-03T21:21:13;98257.44;;;18.18;100.00
17505;BME280;8870;50.950;11.762;2022-09-03T21:26:27;98255.78;;;18.17;100.00
17505;BME280;8870;50.950;11.762;2022-09-03T21:31:34;98267.13;;;18.14;100.00
17505;BME280;8870;50.950;11.762;2022-09-03T21:36:42;98276.38;;;18.00;100.00
17505;BME280;8870;50.950;11.762;2022-09-03T21:41:56;98278.06;;;17.87;100.00
17505;BME280;8870;50.950;11.762;2022-09-03T21:47:05;98287.91;;;17.75;100.00
17505;BME280;8870;50.950;11.762;2022-09-03T21:52:15;98296.31;;;17.53;100.00
17505;BME280;8870;50.950;11.762;2022-09-03T21:57:28;98294.84;;;17.51;100.00
17505;BME280;8870;50.950;11.762;2022-09-03T22:02:35;98302.38;;;17.42;100.00
17505;BME280;8870;50.950;11.762;2022-09-03T22:07:56;98306.56;;;17.38;100.00
17505;BME280;8870;50.950;11.762;2022-09-03T22:13:12;98301.09;;;17.31;100.00
17505;BME280;8870;50.950;11.762;2022-09-03T22:18:21;98302.38;;;17.22;100.00
17505;BME280;8870;50.950;11.762;2022-09-03T22:23:36;98306.97;;;17.08;100.00
17505;BME280;8870;50.950;11.762;2022-09-03T22:28:51;98313.66;;;16.99;100.00
17505;BME280;8870;50.950;11.762;2022-09-03T22:34:10;98303.94;;;16.89;100.00
17505;BME280;8870;50.950;11.762;2022-09-03T22:39:26;98303.28;;;16.74;100.00
17505;BME280;8870;50.950;11.762;2022-09-03T22:50:30;98312.78;;;16.49;100.00
17505;BME280;8870;50.950;11.762;2022-09-03T22:55:36;98315.41;;;16.29;100.00
17505;BME280;8870;50.950;11.762;2022-09-03T23:00:46;98311.19;;;16.20;100.00
17505;BME280;8870;50.950;11.762;2022-09-03T23:06:02;98308.66;;;16.18;100.00
17505;BME280;8870;50.950;11.762;2022-09-03T23:11:20;98314.72;;;16.14;100.00
17505;BME280;8870;50.950;11.762;2022-09-03T23:16:32;98320.94;;;16.08;100.00
17505;BME280;8870;50.950;11.762;2022-09-03T23:21:45;98321.53;;;16.03;100.00
17505;BME280;8870;50.950;11.762;2022-09-03T23:26:53;98324.41;;;15.95;100.00
17505;BME280;8870;50.950;11.762;2022-09-03T23:31:58;98326.63;;;15.84;100.00
17505;BME280;8870;50.950;11.762;2022-09-03T23:37:27;98327.97;;;15.74;100.00
17505;BME280;8870;50.950;11.762;2022-09-03T23:42:47;98334.22;;;15.67;100.00
17505;BME280;8870;50.950;11.762;2022-09-03T23:48:01;98340.22;;;15.63;100.00
17505;BME280;8870;50.950;11.762;2022-09-03T23:53:24;98338.50;;;15.55;100.00
17505;BME280;8870;50.950;11.762;2022-09-03T23:58:37;98349.03;;;15.43;100.00
